sensor_id;sensor_type;location;lat;lon;timestamp;P1;durP1;ratioP1;P2;durP2;ratioP2
28822;SDS011;15961;54.678;9.110;2022-10-04T00:04:51;9.73;;;3.53;;
28822;SDS011;15961;54.678;9.110;2022-10-04T00:07:28;10.27;;;4.45;;
28822;SDS011;15961;54.678;9.110;2022-10-04T00:09:59;9.40;;;3.65;;
28822;SDS011;15961;54.678;9.110;2022-10-04T00:12:50;15.40;;;4.18;;
28822;SDS011;15961;54.678;9.110;2022-10-04T00:15:26;12.70;;;3.83;;
28822;SDS011;15961;54.678;9.110;2022-10-04T00:25:49;6.68;;;3.03;;
28822;SDS011;15961;54.678;9.110;2022-10-04T00:30:44;13.63;;;4.47;;
28822;SDS011;15961;54.678;9.110;2022-10-04T00:33:34;10.45;;;3.20;;
28822;SDS011;15961;54.678;9.110;2022-10-04T00:36:28;10.77;;;3.25;;
28822;SDS011;15961;54.678;9.110;2022-10-04T00:41:28;7.10;;;2.75;;
28822;SDS011;15961;54.678;9.110;2022-10-04T00:44:04;8.13;;;3.38;;
28822;SDS011;15961;54.678;9.110;2022-10-04T00:46:39;41.15;;;3.50;;
28822;SDS011;15961;54.678;9.110;2022-10-04T00:49:05;3.03;;;1.63;;
28822;SDS011;15961;54.678;9.110;2022-10-04T00:51:37;5.78;;;2.83;;
28822;SDS011;15961;54.678;9.110;2022-10-04T00:54:27;3.90;;;2.40;;
28822;SDS011;15961;54.678;9.110;2022-10-04T00:57:06;4.18;;;2.67;;
28822;SDS011;15961;54.678;9.110;2022-10-04T01:00:37;4.05;;;2.15;;
28822;SDS011;15961;54.678;9.110;2022-10-04T01:05:13;5.90;;;2.65;;
28822;SDS011;15961;54.678;9.110;2022-10-04T01:07:44;2.92;;;2.72;;
28822;SDS011;15961;54.678;9.110;2022-10-04T01:10:17;2.63;;;2.10;;
28822;SDS011;15961;54.678;9.110;2022-10-04T01:15:36;5.00;;;2.58;;
28822;SDS011;15961;54.678;9.110;2022-10-04T01:23:30;2.38;;;2.17;;
28822;SDS011;15961;54.678;9.110;2022-10-04T01:25:58;3.60;;;2.47;;
28822;SDS011;15961;54.678;9.110;2022-10-04T01:28:24;2.55;;;2.35;;
28822;SDS011;15961;54.678;9.110;2022-10-04T01:30:50;2.80;;;2.60;;
28822;SDS011;15961;54.678;9.110;2022-10-04T01:33:16;2.60;;;2.40;;
28822;SDS011;15961;54.678;9.110;2022-10-04T01:35:43;9.85;;;3.30;;
28822;SDS011;15961;54.678;9.110;2022-10-04T01:38:08;8.50;;;3.97;;
28822;SDS011;15961;54.678;9.110;2022-10-04T01:40:35;5.03;;;3.20;;
28822;SDS011;15961;54.678;9.110;2022-10-04T01:43:12;4.40;;;3.17;;
28822;SDS011;15961;54.678;9.110;2022-10-04T01:45:52;5.43;;;3.83;;
28822;SDS011;15961;54.678;9.110;2022-10-04T01:48:29;4.45;;;2.90;;
28822;SDS011;15961;54.678;9.110;2022-10-04T01:51:07;4.85;;;3.28;;
28822;SDS011;15961;54.678;9.110;2022-10-04T01:53:41;7.25;;;4.07;;
28822;SDS011;15961;54.678;9.110;2022-10-04T01:56:22;8.77;;;4.13;;
28822;SDS011;15961;54.678;9.110;2022-10-04T01:58:53;4.07;;;3.47;;
28822;SDS011;15961;54.678;9.110;2022-10-04T02:01:34;3.45;;;3.15;;
28822;SDS011;15961;54.678;9.110;2022-10-04T02:04:13;4.28;;;3.20;;
28822;SDS011;15961;54.678;9.110;2022-10-04T02:06:46;4.25;;;2.95;;
28822;SDS011;15961;54.678;9.110;2022-10-04T02:09:18;11.17;;;3.97;;
28822;SDS011;15961;54.678;9.110;2022-10-04T02:11:53;10.48;;;4.43;;
28822;SDS011;15961;54.678;9.110;2022-10-04T02:14:24;4.93;;;4.30;;
28822;SDS011;15961;54.678;9.110;2022-10-04T02:20:07;9.65;;;5.72;;
28822;SDS011;15961;54.678;9.110;2022-10-04T02:22:49;12.40;;;5.88;;
28822;SDS011;15961;54.678;9.110;2022-10-04T02:25:19;9.98;;;6.55;;
28822;SDS011;15961;54.678;9.110;2022-10-04T02:27:45;9.90;;;5.25;;
28822;SDS011;15961;54.678;9.110;2022-10-04T02:30:12;12.40;;;5.25;;
28822;SDS011;15961;54.678;9.110;2022-10-04T02:32:41;14.20;;;5.72;;
28822;SDS011;15961;54.678;9.110;2022-10-04T02:35:30;8.80;;;4.18;;
28822;SDS011;15961;54.678;9.110;2022-10-04T02:40:43;18.63;;;5.25;;
28822;SDS011;15961;54.678;9.110;2022-10-04T02:43:18;10.38;;;4.65;;
28822;SDS011;15961;54.678;9.110;2022-10-04T02:45:55;17.65;;;4.95;;
28822;SDS011;15961;54.678;9.110;2022-10-04T02:51:25;18.17;;;4.78;;
28822;SDS011;15961;54.678;9.110;2022-10-04T02:56:42;13.65;;;4.28;;
28822;SDS011;15961;54.678;9.110;2022-10-04T02:59:13;10.30;;;4.50;;
28822;SDS011;15961;54.678;9.110;2022-10-04T03:01:51;19.02;;;4.53;;
28822;SDS011;15961;54.678;9.110;2022-10-04T03:04:25;32.45;;;4.85;;
28822;SDS011;15961;54.678;9.110;2022-10-04T03:06:52;18.10;;;4.18;;
28822;SDS011;15961;54.678;9.110;2022-10-04T03:09:20;31.40;;;6.15;;
28822;SDS011;15961;54.678;9.110;2022-10-04T03:11:48;17.95;;;4.60;;
28822;SDS011;15961;54.678;9.110;2022-10-04T03:14:17;12.40;;;3.72;;
28822;SDS011;15961;54.678;9.110;2022-10-04T03:16:49;11.60;;;4.32;;
28822;SDS011;15961;54.678;9.110;2022-10-04T03:19:18;25.33;;;3.95;;
28822;SDS011;15961;54.678;9.110;2022-10-04T03:21:47;18.52;;;4.43;;
28822;SDS011;15961;54.678;9.110;2022-10-04T03:24:17;18.77;;;4.40;;
28822;SDS011;15961;54.678;9.110;2022-10-04T03:26:48;14.38;;;4.13;;
28822;SDS011;15961;54.678;9.110;2022-10-04T03:29:21;13.02;;;4.10;;
28822;SDS011;15961;54.678;9.110;2022-10-04T03:31:48;19.48;;;4.25;;
28822;SDS011;15961;54.678;9.110;2022-10-04T03:34:20;13.98;;;3.95;;
28822;SDS011;15961;54.678;9.110;2022-10-04T03:36:57;18.95;;;4.68;;
28822;SDS011;15961;54.678;9.110;2022-10-04T03:41:56;18.15;;;4.93;;
28822;SDS011;15961;54.678;9.110;2022-10-04T03:44:23;18.60;;;3.92;;
28822;SDS011;15961;54.678;9.110;2022-10-04T03:46:49;20.65;;;4.55;;
28822;SDS011;15961;54.678;9.110;2022-10-04T03:49:16;13.80;;;3.30;;
28822;SDS011;15961;54.678;9.110;2022-10-04T03:51:48;27.92;;;4.88;;
28822;SDS011;15961;54.678;9.110;2022-10-04T03:54:15;15.15;;;4.55;;
28822;SDS011;15961;54.678;9.110;2022-10-04T03:56:45;18.65;;;5.00;;
28822;SDS011;15961;54.678;9.110;2022-10-04T03:59:11;22.83;;;4.60;;
28822;SDS011;15961;54.678;9.110;2022-10-04T04:01:48;8.98;;;3.80;;
28822;SDS011;15961;54.678;9.110;2022-10-04T04:15:35;20.95;;;3.92;;
28822;SDS011;15961;54.678;9.110;2022-10-04T04:18:03;16.55;;;4.53;;
28822;SDS011;15961;54.678;9.110;2022-10-04T04:20:33;15.98;;;4.72;;
28822;SDS011;15961;54.678;9.110;2022-10-04T04:23:04;21.75;;;4.47;;
28822;SDS011;15961;54.678;9.110;2022-10-04T04:25:45;20.90;;;5.65;;
28822;SDS011;15961;54.678;9.110;2022-10-04T04:31:07;16.30;;;4.85;;
28822;SDS011;15961;54.678;9.110;2022-10-04T04:33:43;25.73;;;4.93;;
28822;SDS011;15961;54.678;9.110;2022-10-04T04:36:21;31.10;;;5.63;;
28822;SDS011;15961;54.678;9.110;2022-10-04T04:38:47;19.45;;;4.97;;
28822;SDS011;15961;54.678;9.110;2022-10-04T04:41:31;20.00;;;5.40;;
28822;SDS011;15961;54.678;9.110;2022-10-04T04:44:01;30.52;;;5.63;;
28822;SDS011;15961;54.678;9.110;2022-10-04T04:46:28;24.77;;;5.18;;
28822;SDS011;15961;54.678;9.110;2022-10-04T04:48:57;24.30;;;5.65;;
28822;SDS011;15961;54.678;9.110;2022-10-04T04:51:26;21.20;;;4.75;;
28822;SDS011;15961;54.678;9.110;2022-10-04T04:53:53;28.10;;;6.68;;
28822;SDS011;15961;54.678;9.110;2022-10-04T04:56:21;29.95;;;5.60;;
28822;SDS011;15961;54.678;9.110;2022-10-04T04:58:50;24.98;;;5.63;;
28822;SDS011;15961;54.678;9.110;2022-10-04T05:03:58;27.02;;;5.57;;
28822;SDS011;15961;54.678;9.110;2022-10-04T05:06:28;33.22;;;6.03;;
28822;SDS011;15961;54.678;9.110;2022-10-04T05:08:55;32.40;;;6.78;;
28822;SDS011;15961;54.678;9.110;2022-10-04T05:11:20;26.70;;;6.57;;
28822;SDS011;15961;54.678;9.110;2022-10-04T05:13:59;17.23;;;5.07;;
28822;SDS011;15961;54.678;9.110;2022-10-04T05:16:35;24.42;;;6.45;;
28822;SDS011;15961;54.678;9.110;2022-10-04T05:19:06;31.90;;;5.72;;
28822;SDS011;15961;54.678;9.110;2022-10-04T05:21:40;18.48;;;5.47;;
28822;SDS011;15961;54.678;9.110;2022-10-04T05:24:10;30.75;;;6.65;;
28822;SDS011;15961;54.678;9.110;2022-10-04T05:26:41;32.10;;;6.32;;
28822;SDS011;15961;54.678;9.110;2022-10-04T05:29:08;34.47;;;7.70;;
28822;SDS011;15961;54.678;9.110;2022-10-04T05:31:44;34.28;;;6.65;;
28822;SDS011;15961;54.678;9.110;2022-10-04T05:34:23;43.65;;;7.50;;
28822;SDS011;15961;54.678;9.110;2022-10-04T05:39:34;24.73;;;7.00;;
28822;SDS011;15961;54.678;9.110;2022-10-04T05:44:49;22.27;;;5.90;;
28822;SDS011;15961;54.678;9.110;2022-10-04T05:47:18;55.33;;;7.78;;
28822;SDS011;15961;54.678;9.110;2022-10-04T05:49:48;42.38;;;7.57;;
28822;SDS011;15961;54.678;9.110;2022-10-04T05:52:29;37.85;;;6.57;;
28822;SDS011;15961;54.678;9.110;2022-10-04T05:57:56;32.00;;;7.18;;
28822;SDS011;15961;54.678;9.110;2022-10-04T06:05:46;64.60;;;9.35;;
28822;SDS011;15961;54.678;9.110;2022-10-04T06:08:18;36.85;;;8.95;;
28822;SDS011;15961;54.678;9.110;2022-10-04T06:16:08;50.97;;;9.45;;
28822;SDS011;15961;54.678;9.110;2022-10-04T06:19:08;42.63;;;7.93;;
28822;SDS011;15961;54.678;9.110;2022-10-04T06:24:22;38.85;;;7.07;;
28822;SDS011;15961;54.678;9.110;2022-10-04T06:26:53;50.92;;;11.40;;
28822;SDS011;15961;54.678;9.110;2022-10-04T06:32:01;27.63;;;7.10;;
28822;SDS011;15961;54.678;9.110;2022-10-04T06:45:29;43.13;;;7.57;;
28822;SDS011;15961;54.678;9.110;2022-10-04T06:51:09;39.83;;;9.13;;
28822;SDS011;15961;54.678;9.110;2022-10-04T06:59:27;50.38;;;9.95;;
28822;SDS011;15961;54.678;9.110;2022-10-04T07:02:24;53.67;;;10.10;;
28822;SDS011;15961;54.678;9.110;2022-10-04T07:04:57;43.58;;;10.02;;
28822;SDS011;15961;54.678;9.110;2022-10-04T07:07:43;44.55;;;8.75;;
28822;SDS011;15961;54.678;9.110;2022-10-04T07:15:30;33.20;;;8.75;;
28822;SDS011;15961;54.678;9.110;2022-10-04T07:18:02;39.67;;;9.23;;
28822;SDS011;15961;54.678;9.110;2022-10-04T07:20:32;49.05;;;9.65;;
28822;SDS011;15961;54.678;9.110;2022-10-04T07:23:02;42.47;;;9.98;;
28822;SDS011;15961;54.678;9.110;2022-10-04T07:25:36;50.65;;;10.13;;
28822;SDS011;15961;54.678;9.110;2022-10-04T07:31:10;49.60;;;9.57;;
28822;SDS011;15961;54.678;9.110;2022-10-04T07:33:43;60.20;;;10.90;;
28822;SDS011;15961;54.678;9.110;2022-10-04T07:36:24;54.35;;;9.63;;
28822;SDS011;15961;54.678;9.110;2022-10-04T07:39:16;38.38;;;9.13;;
28822;SDS011;15961;54.678;9.110;2022-10-04T07:41:51;43.38;;;10.25;;
28822;SDS011;15961;54.678;9.110;2022-10-04T07:47:03;51.03;;;10.27;;
28822;SDS011;15961;54.678;9.110;2022-10-04T07:49:47;44.70;;;10.43;;
28822;SDS011;15961;54.678;9.110;2022-10-04T07:52:29;32.65;;;10.52;;
28822;SDS011;15961;54.678;9.110;2022-10-04T07:58:13;45.10;;;7.53;;
28822;SDS011;15961;54.678;9.110;2022-10-04T08:06:29;40.63;;;9.05;;
28822;SDS011;15961;54.678;9.110;2022-10-04T08:09:20;61.28;;;11.57;;
28822;SDS011;15961;54.678;9.110;2022-10-04T08:15:22;52.85;;;9.98;;
28822;SDS011;15961;54.678;9.110;2022-10-04T08:21:01;34.67;;;8.30;;
28822;SDS011;15961;54.678;9.110;2022-10-04T08:26:32;55.70;;;11.15;;
28822;SDS011;15961;54.678;9.110;2022-10-04T08:29:20;50.58;;;11.30;;
28822;SDS011;15961;54.678;9.110;2022-10-04T08:34:50;58.10;;;12.25;;
28822;SDS011;15961;54.678;9.110;2022-10-04T08:37:38;33.70;;;10.10;;
28822;SDS011;15961;54.678;9.110;2022-10-04T08:48:45;45.00;;;9.02;;
28822;SDS011;15961;54.678;9.110;2022-10-04T09:05:56;44.97;;;8.18;;
28822;SDS011;15961;54.678;9.110;2022-10-04T09:25:46;32.33;;;5.57;;
28822;SDS011;15961;54.678;9.110;2022-10-04T09:28:44;28.50;;;5.85;;
28822;SDS011;15961;54.678;9.110;2022-10-04T09:34:20;36.05;;;7.50;;
28822;SDS011;15961;54.678;9.110;2022-10-04T09:37:19;23.58;;;4.78;;
28822;SDS011;15961;54.678;9.110;2022-10-04T09:45:24;22.10;;;5.63;;
28822;SDS011;15961;54.678;9.110;2022-10-04T09:48:13;30.10;;;5.55;;
28822;SDS011;15961;54.678;9.110;2022-10-04T10:07:14;19.15;;;5.38;;
28822;SDS011;15961;54.678;9.110;2022-10-04T10:24:25;25.55;;;7.47;;
28822;SDS011;15961;54.678;9.110;2022-10-04T10:27:35;23.75;;;6.38;;
28822;SDS011;15961;54.678;9.110;2022-10-04T10:38:49;23.38;;;5.38;;
28822;SDS011;15961;54.678;9.110;2022-10-04T10:41:32;24.63;;;4.57;;
28822;SDS011;15961;54.678;9.110;2022-10-04T10:49:37;21.02;;;5.05;;
28822;SDS011;15961;54.678;9.110;2022-10-04T11:00:42;20.40;;;4.45;;
28822;SDS011;15961;54.678;9.110;2022-10-04T11:17:43;12.57;;;3.42;;
28822;SDS011;15961;54.678;9.110;2022-10-04T11:26:06;22.30;;;4.28;;
28822;SDS011;15961;54.678;9.110;2022-10-04T11:47:02;19.10;;;3.65;;
28822;SDS011;15961;54.678;9.110;2022-10-04T11:52:07;17.10;;;3.42;;
28822;SDS011;15961;54.678;9.110;2022-10-04T11:55:19;12.20;;;3.63;;
28822;SDS011;15961;54.678;9.110;2022-10-04T11:58:19;17.75;;;4.53;;
28822;SDS011;15961;54.678;9.110;2022-10-04T12:07:02;10.63;;;3.78;;
28822;SDS011;15961;54.678;9.110;2022-10-04T12:09:52;13.88;;;3.95;;
28822;SDS011;15961;54.678;9.110;2022-10-04T12:12:42;14.00;;;3.55;;
28822;SDS011;15961;54.678;9.110;2022-10-04T12:20:53;17.63;;;4.35;;
28822;SDS011;15961;54.678;9.110;2022-10-04T12:23:46;16.80;;;3.70;;
28822;SDS011;15961;54.678;9.110;2022-10-04T12:31:57;14.70;;;3.67;;
28822;SDS011;15961;54.678;9.110;2022-10-04T12:43:25;17.48;;;4.38;;
28822;SDS011;15961;54.678;9.110;2022-10-04T13:10:47;11.27;;;3.08;;
28822;SDS011;15961;54.678;9.110;2022-10-04T13:22:31;13.48;;;2.95;;
28822;SDS011;15961;54.678;9.110;2022-10-04T13:31:04;12.48;;;2.80;;
28822;SDS011;15961;54.678;9.110;2022-10-04T13:39:05;12.05;;;3.53;;
28822;SDS011;15961;54.678;9.110;2022-10-04T13:44:31;14.05;;;3.58;;
28822;SDS011;15961;54.678;9.110;2022-10-04T13:47:16;15.27;;;3.30;;
28822;SDS011;15961;54.678;9.110;2022-10-04T13:55:34;13.07;;;3.03;;
28822;SDS011;15961;54.678;9.110;2022-10-04T14:06:35;18.15;;;3.97;;
28822;SDS011;15961;54.678;9.110;2022-10-04T14:17:32;9.20;;;2.38;;
28822;SDS011;15961;54.678;9.110;2022-10-04T14:28:57;12.18;;;2.83;;
28822;SDS011;15961;54.678;9.110;2022-10-04T14:45:39;18.70;;;4.28;;
28822;SDS011;15961;54.678;9.110;2022-10-04T14:48:50;16.13;;;3.90;;
28822;SDS011;15961;54.678;9.110;2022-10-04T14:51:29;16.83;;;3.95;;
28822;SDS011;15961;54.678;9.110;2022-10-04T14:54:09;10.98;;;3.47;;
28822;SDS011;15961;54.678;9.110;2022-10-04T14:56:49;18.02;;;4.35;;
28822;SDS011;15961;54.678;9.110;2022-10-04T15:07:44;14.68;;;4.43;;
28822;SDS011;15961;54.678;9.110;2022-10-04T15:15:39;10.18;;;3.70;;
28822;SDS011;15961;54.678;9.110;2022-10-04T15:18:29;17.05;;;4.10;;
28822;SDS011;15961;54.678;9.110;2022-10-04T15:23:49;14.15;;;4.38;;
28822;SDS011;15961;54.678;9.110;2022-10-04T15:31:20;14.07;;;3.13;;
28822;SDS011;15961;54.678;9.110;2022-10-04T15:33:57;11.05;;;2.90;;
28822;SDS011;15961;54.678;9.110;2022-10-04T15:36:46;14.93;;;3.38;;
28822;SDS011;15961;54.678;9.110;2022-10-04T15:47:24;19.65;;;4.30;;
28822;SDS011;15961;54.678;9.110;2022-10-04T15:53:06;16.77;;;4.40;;
28822;SDS011;15961;54.678;9.110;2022-10-04T15:58:04;14.77;;;4.05;;
28822;SDS011;15961;54.678;9.110;2022-10-04T16:16:52;12.35;;;4.05;;
28822;SDS011;15961;54.678;9.110;2022-10-04T16:19:38;16.67;;;5.07;;
28822;SDS011;15961;54.678;9.110;2022-10-04T16:22:26;19.17;;;4.75;;
28822;SDS011;15961;54.678;9.110;2022-10-04T16:27:28;22.30;;;5.53;;
28822;SDS011;15961;54.678;9.110;2022-10-04T16:30:11;18.67;;;5.07;;
28822;SDS011;15961;54.678;9.110;2022-10-04T16:38:14;29.67;;;5.95;;
28822;SDS011;15961;54.678;9.110;2022-10-04T16:56:27;23.17;;;5.60;;
28822;SDS011;15961;54.678;9.110;2022-10-04T16:59:09;24.33;;;6.38;;
28822;SDS011;15961;54.678;9.110;2022-10-04T17:01:45;17.38;;;5.05;;
28822;SDS011;15961;54.678;9.110;2022-10-04T17:07:12;20.25;;;6.28;;
28822;SDS011;15961;54.678;9.110;2022-10-04T17:09:57;18.45;;;6.60;;
28822;SDS011;15961;54.678;9.110;2022-10-04T17:29:39;20.87;;;5.93;;
28822;SDS011;15961;54.678;9.110;2022-10-04T17:38:03;19.92;;;6.43;;
28822;SDS011;15961;54.678;9.110;2022-10-04T17:48:44;16.55;;;6.50;;
28822;SDS011;15961;54.678;9.110;2022-10-04T17:51:38;17.40;;;7.32;;
28822;SDS011;15961;54.678;9.110;2022-10-04T17:57:26;20.40;;;7.70;;
28822;SDS011;15961;54.678;9.110;2022-10-04T18:03:04;26.58;;;7.40;;
28822;SDS011;15961;54.678;9.110;2022-10-04T18:06:28;23.05;;;7.20;;
28822;SDS011;15961;54.678;9.110;2022-10-04T18:09:11;19.33;;;7.80;;
28822;SDS011;15961;54.678;9.110;2022-10-04T18:11:53;25.30;;;7.97;;
28822;SDS011;15961;54.678;9.110;2022-10-04T18:16:53;19.88;;;6.80;;
28822;SDS011;15961;54.678;9.110;2022-10-04T18:19:43;17.35;;;5.95;;
28822;SDS011;15961;54.678;9.110;2022-10-04T18:22:15;31.40;;;7.47;;
28822;SDS011;15961;54.678;9.110;2022-10-04T18:24:42;18.27;;;5.65;;
28822;SDS011;15961;54.678;9.110;2022-10-04T18:27:17;15.05;;;6.00;;
28822;SDS011;15961;54.678;9.110;2022-10-04T18:35:01;20.17;;;5.68;;
28822;SDS011;15961;54.678;9.110;2022-10-04T18:37:56;24.88;;;6.07;;
28822;SDS011;15961;54.678;9.110;2022-10-04T18:40:42;11.88;;;6.00;;
28822;SDS011;15961;54.678;9.110;2022-10-04T18:46:03;16.48;;;6.60;;
28822;SDS011;15961;54.678;9.110;2022-10-04T18:48:50;21.27;;;7.00;;
28822;SDS011;15961;54.678;9.110;2022-10-04T18:56:59;27.67;;;6.72;;
28822;SDS011;15961;54.678;9.110;2022-10-04T18:59:33;18.65;;;6.40;;
28822;SDS011;15961;54.678;9.110;2022-10-04T19:02:28;17.23;;;7.03;;
28822;SDS011;15961;54.678;9.110;2022-10-04T19:05:10;18.77;;;6.75;;
28822;SDS011;15961;54.678;9.110;2022-10-04T19:07:56;16.85;;;6.63;;
28822;SDS011;15961;54.678;9.110;2022-10-04T19:10:41;19.02;;;6.30;;
28822;SDS011;15961;54.678;9.110;2022-10-04T19:13:15;14.40;;;6.20;;
28822;SDS011;15961;54.678;9.110;2022-10-04T19:16:02;24.52;;;6.38;;
28822;SDS011;15961;54.678;9.110;2022-10-04T19:21:38;17.05;;;7.15;;
28822;SDS011;15961;54.678;9.110;2022-10-04T19:26:48;17.88;;;6.30;;
28822;SDS011;15961;54.678;9.110;2022-10-04T19:32:02;15.68;;;6.60;;
28822;SDS011;15961;54.678;9.110;2022-10-04T19:37:23;19.75;;;6.90;;
28822;SDS011;15961;54.678;9.110;2022-10-04T19:45:19;21.85;;;7.20;;
28822;SDS011;15961;54.678;9.110;2022-10-04T19:48:07;17.25;;;6.97;;
28822;SDS011;15961;54.678;9.110;2022-10-04T19:50:42;16.45;;;6.90;;
28822;SDS011;15961;54.678;9.110;2022-10-04T19:53:19;23.50;;;6.57;;
28822;SDS011;15961;54.678;9.110;2022-10-04T19:58:31;19.10;;;7.75;;
28822;SDS011;15961;54.678;9.110;2022-10-04T20:01:09;23.45;;;7.20;;
28822;SDS011;15961;54.678;9.110;2022-10-04T20:03:39;14.20;;;6.93;;
28822;SDS011;15961;54.678;9.110;2022-10-04T20:06:05;17.17;;;7.55;;
28822;SDS011;15961;54.678;9.110;2022-10-04T20:14:14;24.95;;;7.60;;
28822;SDS011;15961;54.678;9.110;2022-10-04T20:19:20;25.48;;;7.50;;
28822;SDS011;15961;54.678;9.110;2022-10-04T20:27:06;22.42;;;7.90;;
28822;SDS011;15961;54.678;9.110;2022-10-04T20:30:00;22.55;;;7.75;;
28822;SDS011;15961;54.678;9.110;2022-10-04T20:35:01;21.95;;;8.43;;
28822;SDS011;15961;54.678;9.110;2022-10-04T20:43:33;24.05;;;8.32;;
28822;SDS011;15961;54.678;9.110;2022-10-04T20:48:24;13.10;;;6.70;;
28822;SDS011;15961;54.678;9.110;2022-10-04T20:50:51;28.10;;;8.25;;
28822;SDS011;15961;54.678;9.110;2022-10-04T20:53:22;26.83;;;8.85;;
28822;SDS011;15961;54.678;9.110;2022-10-04T20:58:33;17.55;;;7.25;;
28822;SDS011;15961;54.678;9.110;2022-10-04T21:01:03;14.38;;;7.13;;
28822;SDS011;15961;54.678;9.110;2022-10-04T21:06:58;22.15;;;7.18;;
28822;SDS011;15961;54.678;9.110;2022-10-04T21:09:26;21.10;;;8.40;;
28822;SDS011;15961;54.678;9.110;2022-10-04T21:11:54;21.77;;;7.05;;
28822;SDS011;15961;54.678;9.110;2022-10-04T21:16:56;21.13;;;8.95;;
28822;SDS011;15961;54.678;9.110;2022-10-04T21:21:57;23.13;;;8.35;;
28822;SDS011;15961;54.678;9.110;2022-10-04T21:24:37;17.90;;;8.85;;
28822;SDS011;15961;54.678;9.110;2022-10-04T21:27:05;26.20;;;8.48;;
28822;SDS011;15961;54.678;9.110;2022-10-04T21:29:34;27.13;;;8.70;;
28822;SDS011;15961;54.678;9.110;2022-10-04T21:32:00;25.15;;;9.07;;
28822;SDS011;15961;54.678;9.110;2022-10-04T21:34:26;20.95;;;8.88;;
28822;SDS011;15961;54.678;9.110;2022-10-04T21:36:51;25.70;;;9.80;;
28822;SDS011;15961;54.678;9.110;2022-10-04T21:39:17;21.25;;;8.38;;
28822;SDS011;15961;54.678;9.110;2022-10-04T21:41:43;22.05;;;8.27;;
28822;SDS011;15961;54.678;9.110;2022-10-04T21:44:09;27.73;;;9.05;;
28822;SDS011;15961;54.678;9.110;2022-10-04T21:46:34;21.70;;;8.88;;
28822;SDS011;15961;54.678;9.110;2022-10-04T21:49:00;29.33;;;9.50;;
28822;SDS011;15961;54.678;9.110;2022-10-04T21:51:29;24.83;;;9.40;;
28822;SDS011;15961;54.678;9.110;2022-10-04T21:53:57;20.48;;;8.30;;
28822;SDS011;15961;54.678;9.110;2022-10-04T21:56:23;29.33;;;10.02;;
28822;SDS011;15961;54.678;9.110;2022-10-04T21:58:49;21.13;;;8.73;;
28822;SDS011;15961;54.678;9.110;2022-10-04T22:01:14;26.45;;;9.35;;
28822;SDS011;15961;54.678;9.110;2022-10-04T22:03:40;22.80;;;8.52;;
28822;SDS011;15961;54.678;9.110;2022-10-04T22:06:05;24.70;;;8.80;;
28822;SDS011;15961;54.678;9.110;2022-10-04T22:08:31;22.13;;;8.55;;
28822;SDS011;15961;54.678;9.110;2022-10-04T22:10:56;26.92;;;10.18;;
28822;SDS011;15961;54.678;9.110;2022-10-04T22:13:22;19.13;;;9.63;;
28822;SDS011;15961;54.678;9.110;2022-10-04T22:15:47;22.65;;;9.38;;
28822;SDS011;15961;54.678;9.110;2022-10-04T22:18:13;29.08;;;10.02;;
28822;SDS011;15961;54.678;9.110;2022-10-04T22:20:38;21.85;;;9.20;;
28822;SDS011;15961;54.678;9.110;2022-10-04T22:23:05;34.08;;;10.15;;
28822;SDS011;15961;54.678;9.110;2022-10-04T22:25:36;20.07;;;10.70;;
28822;SDS011;15961;54.678;9.110;2022-10-04T22:28:12;22.92;;;10.95;;
28822;SDS011;15961;54.678;9.110;2022-10-04T22:30:51;29.17;;;10.15;;
28822;SDS011;15961;54.678;9.110;2022-10-04T22:33:26;21.67;;;9.30;;
28822;SDS011;15961;54.678;9.110;2022-10-04T22:36:18;17.80;;;9.20;;
28822;SDS011;15961;54.678;9.110;2022-10-04T22:38:55;24.33;;;10.70;;
28822;SDS011;15961;54.678;9.110;2022-10-04T22:41:24;31.88;;;11.02;;
28822;SDS011;15961;54.678;9.110;2022-10-04T22:43:54;20.90;;;9.90;;
28822;SDS011;15961;54.678;9.110;2022-10-04T22:46:21;28.35;;;11.23;;
28822;SDS011;15961;54.678;9.110;2022-10-04T22:48:56;28.05;;;12.18;;
28822;SDS011;15961;54.678;9.110;2022-10-04T22:51:21;25.67;;;9.60;;
28822;SDS011;15961;54.678;9.110;2022-10-04T22:53:47;20.45;;;10.07;;
28822;SDS011;15961;54.678;9.110;2022-10-04T22:56:13;26.92;;;10.75;;
28822;SDS011;15961;54.678;9.110;2022-10-04T22:58:40;30.15;;;11.40;;
28822;SDS011;15961;54.678;9.110;2022-10-04T23:01:13;27.73;;;11.43;;
28822;SDS011;15961;54.678;9.110;2022-10-04T23:03:43;23.98;;;10.77;;
28822;SDS011;15961;54.678;9.110;2022-10-04T23:06:10;29.17;;;12.40;;
28822;SDS011;15961;54.678;9.110;2022-10-04T23:08:42;20.95;;;11.20;;
28822;SDS011;15961;54.678;9.110;2022-10-04T23:11:08;41.22;;;13.93;;
28822;SDS011;15961;54.678;9.110;2022-10-04T23:13:35;27.20;;;11.45;;
28822;SDS011;15961;54.678;9.110;2022-10-04T23:16:15;27.85;;;12.75;;
28822;SDS011;15961;54.678;9.110;2022-10-04T23:18:43;29.45;;;11.73;;
28822;SDS011;15961;54.678;9.110;2022-10-04T23:21:21;31.02;;;11.38;;
28822;SDS011;15961;54.678;9.110;2022-10-04T23:23:49;33.50;;;12.50;;
28822;SDS011;15961;54.678;9.110;2022-10-04T23:26:21;28.25;;;12.38;;
28822;SDS011;15961;54.678;9.110;2022-10-04T23:28:48;32.20;;;11.93;;
28822;SDS011;15961;54.678;9.110;2022-10-04T23:31:26;33.60;;;11.68;;
28822;SDS011;15961;54.678;9.110;2022-10-04T23:33:52;27.92;;;11.60;;
28822;SDS011;15961;54.678;9.110;2022-10-04T23:36:20;27.70;;;11.07;;
28822;SDS011;15961;54.678;9.110;2022-10-04T23:38:51;26.15;;;11.55;;
28822;SDS011;15961;54.678;9.110;2022-10-04T23:41:20;27.80;;;11.68;;
28822;SDS011;15961;54.678;9.110;2022-10-04T23:43:46;29.10;;;11.30;;
28822;SDS011;15961;54.678;9.110;2022-10-04T23:46:14;23.73;;;12.48;;
28822;SDS011;15961;54.678;9.110;2022-10-04T23:48:43;33.63;;;12.35;;
28822;SDS011;15961;54.678;9.110;2022-10-04T23:51:13;28.58;;;12.57;;
28822;SDS011;15961;54.678;9.110;2022-10-04T23:53:41;22.67;;;12.07;;
28822;SDS011;15961;54.678;9.110;2022-10-04T23:56:11;28.27;;;12.48;;
28822;SDS011;15961;54.678;9.110;2022-10-04T23:58:51;33.13;;;12.90;;
